sensor_id;sensor_type;location;lat;lon;timestamp;temperature;humidity
22769;DHT22;13001;51.968;5.918;2022-11-20T07:22:34;-0.60;94.10
22769;DHT22;13001;51.968;5.918;2022-11-20T07:25:01;-2.00;99.90
22769;DHT22;13001;51.968;5.918;2022-11-20T07:32:24;-2.00;99.90
22769;DHT22;13001;51.968;5.918;2022-11-20T07:34:51;-0.50;99.90
22769;DHT22;13001;51.968;5.918;2022-11-20T07:37:19;0.90;99.90
22769;DHT22;13001;51.968;5.918;2022-11-20T07:39:46;1.80;99.90
22769;DHT22;13001;51.968;5.918;2022-11-20T07:42:15;1.80;98.20
22769;DHT22;13001;51.968;5.918;2022-11-20T07:44:43;1.60;97.60
22769;DHT22;13001;51.968;5.918;2022-11-20T07:47:10;1.30;97.50
22769;DHT22;13001;51.968;5.918;2022-11-20T07:49:38;1.00;97.50
22769;DHT22;13001;51.968;5.918;2022-11-20T07:52:05;0.70;97.60
22769;DHT22;13001;51.968;5.918;2022-11-20T07:54:33;0.40;97.90
22769;DHT22;13001;51.968;5.918;2022-11-20T07:57:00;0.30;98.30
22769;DHT22;13001;51.968;5.918;2022-11-20T07:59:28;0.30;98.50
22769;DHT22;13001;51.968;5.918;2022-11-20T08:01:55;0.30;98.70
22769;DHT22;13001;51.968;5.918;2022-11-20T08:04:23;0.70;99.20
22769;DHT22;13001;51.968;5.918;2022-11-20T08:06:52;1.00;98.40
22769;DHT22;13001;51.968;5.918;2022-11-20T08:09:20;1.30;98.10
22769;DHT22;13001;51.968;5.918;2022-11-20T08:11:47;2.40;98.50
22769;DHT22;13001;51.968;5.918;2022-11-20T08:14:33;4.50;97.60
22769;DHT22;13001;51.968;5.918;2022-11-20T08:17:00;6.80;94.30
22769;DHT22;13001;51.968;5.918;2022-11-20T08:19:28;8.50;91.70
22769;DHT22;13001;51.968;5.918;2022-11-20T08:21:56;9.10;87.90
22769;DHT22;13001;51.968;5.918;2022-11-20T08:24:23;8.70;85.00
22769;DHT22;13001;51.968;5.918;2022-11-20T08:26:52;7.90;84.30
22769;DHT22;13001;51.968;5.918;2022-11-20T08:29:20;6.90;85.30
22769;DHT22;13001;51.968;5.918;2022-11-20T08:31:47;6.10;86.90
22769;DHT22;13001;51.968;5.918;2022-11-20T08:34:15;5.40;89.30
22769;DHT22;13001;51.968;5.918;2022-11-20T08:36:45;5.00;90.10
22769;DHT22;13001;51.968;5.918;2022-11-20T08:39:14;4.80;91.00
22769;DHT22;13001;51.968;5.918;2022-11-20T08:41:41;4.80;90.90
22769;DHT22;13001;51.968;5.918;2022-11-20T08:44:09;4.70;91.00
22769;DHT22;13001;51.968;5.918;2022-11-20T08:46:42;4.60;91.10
22769;DHT22;13001;51.968;5.918;2022-11-20T08:49:13;4.40;91.20
22769;DHT22;13001;51.968;5.918;2022-11-20T08:51:41;4.20;91.20
22769;DHT22;13001;51.968;5.918;2022-11-20T08:54:09;4.00;91.70
22769;DHT22;13001;51.968;5.918;2022-11-20T08:56:36;4.20;92.30
22769;DHT22;13001;51.968;5.918;2022-11-20T08:59:04;5.30;92.60
22769;DHT22;13001;51.968;5.918;2022-11-20T09:01:34;6.60;91.40
22769;DHT22;13001;51.968;5.918;2022-11-20T09:04:02;7.20;89.50
22769;DHT22;13001;51.968;5.918;2022-11-20T09:06:31;7.00;87.00
22769;DHT22;13001;51.968;5.918;2022-11-20T09:08:58;6.40;87.20
22769;DHT22;13001;51.968;5.918;2022-11-20T09:11:26;5.90;88.40
22769;DHT22;13001;51.968;5.918;2022-11-20T09:13:53;5.50;89.40
22769;DHT22;13001;51.968;5.918;2022-11-20T09:16:21;5.10;90.20
22769;DHT22;13001;51.968;5.918;2022-11-20T09:18:50;4.80;90.70
22769;DHT22;13001;51.968;5.918;2022-11-20T09:21:17;4.60;91.10
22769;DHT22;13001;51.968;5.918;2022-11-20T09:23:45;4.40;91.30
22769;DHT22;13001;51.968;5.918;2022-11-20T09:26:14;4.30;91.60
22769;DHT22;13001;51.968;5.918;2022-11-20T09:28:41;4.10;91.70
22769;DHT22;13001;51.968;5.918;2022-11-20T09:31:17;4.00;91.80
22769;DHT22;13001;51.968;5.918;2022-11-20T09:33:42;3.90;91.90
22769;DHT22;13001;51.968;5.918;2022-11-20T09:36:11;3.70;92.00
22769;DHT22;13001;51.968;5.918;2022-11-20T09:38:42;3.50;92.10
22769;DHT22;13001;51.968;5.918;2022-11-20T09:41:32;3.40;92.20
22769;DHT22;13001;51.968;5.918;2022-11-20T09:44:05;3.20;92.30
22769;DHT22;13001;51.968;5.918;2022-11-20T09:46:37;3.10;92.50
22769;DHT22;13001;51.968;5.918;2022-11-20T09:51:57;2.80;92.90
22769;DHT22;13001;51.968;5.918;2022-11-20T09:54:37;2.70;93.00
22769;DHT22;13001;51.968;5.918;2022-11-20T09:57:13;2.60;93.20
22769;DHT22;13001;51.968;5.918;2022-11-20T09:59:43;2.60;93.40
22769;DHT22;13001;51.968;5.918;2022-11-20T10:05:02;2.60;93.60
22769;DHT22;13001;51.968;5.918;2022-11-20T10:07:47;2.60;93.80
22769;DHT22;13001;51.968;5.918;2022-11-20T10:10:28;2.70;93.90
22769;DHT22;13001;51.968;5.918;2022-11-20T10:18:38;3.10;94.00
22769;DHT22;13001;51.968;5.918;2022-11-20T10:23:56;3.50;93.90
22769;DHT22;13001;51.968;5.918;2022-11-20T10:26:37;3.70;93.90
22769;DHT22;13001;51.968;5.918;2022-11-20T10:31:39;4.00;93.60
22769;DHT22;13001;51.968;5.918;2022-11-20T10:37:02;4.20;93.30
22769;DHT22;13001;51.968;5.918;2022-11-20T10:39:41;4.30;93.00
22769;DHT22;13001;51.968;5.918;2022-11-20T10:42:24;4.30;93.00
22769;DHT22;13001;51.968;5.918;2022-11-20T10:44:52;4.40;93.10
22769;DHT22;13001;51.968;5.918;2022-11-20T10:47:30;4.60;93.10
22769;DHT22;13001;51.968;5.918;2022-11-20T10:50:04;4.70;93.00
22769;DHT22;13001;51.968;5.918;2022-11-20T10:52:49;4.80;93.10
22769;DHT22;13001;51.968;5.918;2022-11-20T11:00:32;4.90;92.90
22769;DHT22;13001;51.968;5.918;2022-11-20T11:03:00;4.80;92.80
22769;DHT22;13001;51.968;5.918;2022-11-20T11:05:48;4.70;92.90
22769;DHT22;13001;51.968;5.918;2022-11-20T11:08:18;4.60;93.00
22769;DHT22;13001;51.968;5.918;2022-11-20T11:10:50;4.50;93.00
22769;DHT22;13001;51.968;5.918;2022-11-20T11:13:22;4.40;93.00
22769;DHT22;13001;51.968;5.918;2022-11-20T11:15:51;4.20;93.00
22769;DHT22;13001;51.968;5.918;2022-11-20T11:18:33;4.10;93.30
22769;DHT22;13001;51.968;5.918;2022-11-20T11:21:04;4.00;93.50
22769;DHT22;13001;51.968;5.918;2022-11-20T11:23:38;3.90;93.70
22769;DHT22;13001;51.968;5.918;2022-11-20T11:26:07;3.90;93.80
22769;DHT22;13001;51.968;5.918;2022-11-20T11:28:35;3.90;94.00
22769;DHT22;13001;51.968;5.918;2022-11-20T11:31:03;4.00;94.20
22769;DHT22;13001;51.968;5.918;2022-11-20T11:33:32;4.00;94.30
22769;DHT22;13001;51.968;5.918;2022-11-20T11:36:04;4.10;94.30
22769;DHT22;13001;51.968;5.918;2022-11-20T11:38:35;4.10;94.30
22769;DHT22;13001;51.968;5.918;2022-11-20T11:41:05;4.10;94.40
22769;DHT22;13001;51.968;5.918;2022-11-20T11:43:35;4.20;94.50
22769;DHT22;13001;51.968;5.918;2022-11-20T11:48:57;4.20;94.60
22769;DHT22;13001;51.968;5.918;2022-11-20T11:51:52;4.20;94.60
22769;DHT22;13001;51.968;5.918;2022-11-20T11:54:20;4.10;94.60
22769;DHT22;13001;51.968;5.918;2022-11-20T11:56:48;4.10;94.70
22769;DHT22;13001;51.968;5.918;2022-11-20T12:02:38;3.90;95.20
22769;DHT22;13001;51.968;5.918;2022-11-20T12:05:26;3.70;95.40
22769;DHT22;13001;51.968;5.918;2022-11-20T12:07:49;3.70;95.60
22769;DHT22;13001;51.968;5.918;2022-11-20T12:11:16;3.70;95.80
22769;DHT22;13001;51.968;5.918;2022-11-20T12:12:54;3.60;95.90
22769;DHT22;13001;51.968;5.918;2022-11-20T12:15:27;3.60;96.00
22769;DHT22;13001;51.968;5.918;2022-11-20T12:17:55;3.50;96.20
22769;DHT22;13001;51.968;5.918;2022-11-20T12:20:25;3.50;96.40
22769;DHT22;13001;51.968;5.918;2022-11-20T12:25:35;3.50;96.60
22769;DHT22;13001;51.968;5.918;2022-11-20T12:28:28;3.50;96.70
22769;DHT22;13001;51.968;5.918;2022-11-20T12:34:30;3.60;96.90
22769;DHT22;13001;51.968;5.918;2022-11-20T12:37:04;3.60;96.90
22769;DHT22;13001;51.968;5.918;2022-11-20T12:39:35;3.50;97.10
22769;DHT22;13001;51.968;5.918;2022-11-20T12:45:10;3.60;97.20
22769;DHT22;13001;51.968;5.918;2022-11-20T12:50:47;3.70;97.40
22769;DHT22;13001;51.968;5.918;2022-11-20T12:56:43;3.80;97.40
22769;DHT22;13001;51.968;5.918;2022-11-20T13:02:33;3.70;97.40
22769;DHT22;13001;51.968;5.918;2022-11-20T13:05:05;3.80;97.60
22769;DHT22;13001;51.968;5.918;2022-11-20T13:07:30;3.80;97.60
22769;DHT22;13001;51.968;5.918;2022-11-20T13:09:59;3.70;97.60
22769;DHT22;13001;51.968;5.918;2022-11-20T13:12:36;3.80;97.80
22769;DHT22;13001;51.968;5.918;2022-11-20T13:15:30;3.70;97.80
22769;DHT22;13001;51.968;5.918;2022-11-20T13:17:57;3.70;97.90
22769;DHT22;13001;51.968;5.918;2022-11-20T13:20:26;3.70;98.00
22769;DHT22;13001;51.968;5.918;2022-11-20T13:22:55;3.70;98.00
22769;DHT22;13001;51.968;5.918;2022-11-20T13:25:28;3.70;98.10
22769;DHT22;13001;51.968;5.918;2022-11-20T13:28:03;3.60;98.20
22769;DHT22;13001;51.968;5.918;2022-11-20T13:30:28;3.50;98.40
22769;DHT22;13001;51.968;5.918;2022-11-20T13:33:29;3.50;98.70
22769;DHT22;13001;51.968;5.918;2022-11-20T13:36:06;3.50;99.00
22769;DHT22;13001;51.968;5.918;2022-11-20T13:38:48;3.50;99.20
22769;DHT22;13001;51.968;5.918;2022-11-20T13:41:25;3.50;99.50
22769;DHT22;13001;51.968;5.918;2022-11-20T13:46:48;3.50;99.90
22769;DHT22;13001;51.968;5.918;2022-11-20T13:49:22;3.50;99.90
22769;DHT22;13001;51.968;5.918;2022-11-20T13:51:47;3.50;99.90
22769;DHT22;13001;51.968;5.918;2022-11-20T13:57:07;3.50;99.90
22769;DHT22;13001;51.968;5.918;2022-11-20T14:02:09;3.50;99.90
22769;DHT22;13001;51.968;5.918;2022-11-20T14:04:36;3.50;99.90
22769;DHT22;13001;51.968;5.918;2022-11-20T14:07:06;3.60;99.90
22769;DHT22;13001;51.968;5.918;2022-11-20T14:09:34;3.60;99.90
22769;DHT22;13001;51.968;5.918;2022-11-20T14:12:03;3.60;99.90
22769;DHT22;13001;51.968;5.918;2022-11-20T14:14:33;3.60;99.90
22769;DHT22;13001;51.968;5.918;2022-11-20T14:17:07;3.60;99.90
22769;DHT22;13001;51.968;5.918;2022-11-20T14:19:36;3.60;99.90
22769;DHT22;13001;51.968;5.918;2022-11-20T14:22:10;3.60;99.90
22769;DHT22;13001;51.968;5.918;2022-11-20T14:24:39;3.50;99.90
22769;DHT22;13001;51.968;5.918;2022-11-20T14:27:18;3.50;99.90
22769;DHT22;13001;51.968;5.918;2022-11-20T14:29:49;3.50;99.90
22769;DHT22;13001;51.968;5.918;2022-11-20T14:32:19;3.50;99.90
22769;DHT22;13001;51.968;5.918;2022-11-20T14:35:08;3.50;99.90
22769;DHT22;13001;51.968;5.918;2022-11-20T14:37:43;3.50;99.90
22769;DHT22;13001;51.968;5.918;2022-11-20T14:40:24;3.50;99.90
22769;DHT22;13001;51.968;5.918;2022-11-20T14:42:52;3.50;99.90
22769;DHT22;13001;51.968;5.918;2022-11-20T14:45:20;3.50;99.90
22769;DHT22;13001;51.968;5.918;2022-11-20T14:47:50;3.50;99.90
22769;DHT22;13001;51.968;5.918;2022-11-20T14:50:30;3.40;99.90
22769;DHT22;13001;51.968;5.918;2022-11-20T14:53:00;3.50;99.90
22769;DHT22;13001;51.968;5.918;2022-11-20T14:55:30;3.50;99.90
22769;DHT22;13001;51.968;5.918;2022-11-20T14:58:01;3.40;99.90
22769;DHT22;13001;51.968;5.918;2022-11-20T15:00:30;3.40;99.90
22769;DHT22;13001;51.968;5.918;2022-11-20T15:02:58;3.50;99.90
22769;DHT22;13001;51.968;5.918;2022-11-20T15:05:47;3.40;99.90
22769;DHT22;13001;51.968;5.918;2022-11-20T15:08:17;3.50;99.90
22769;DHT22;13001;51.968;5.918;2022-11-20T15:10:47;3.50;99.90
22769;DHT22;13001;51.968;5.918;2022-11-20T15:15:54;3.50;99.90
22769;DHT22;13001;51.968;5.918;2022-11-20T15:18:29;3.50;99.90
22769;DHT22;13001;51.968;5.918;2022-11-20T15:20:52;3.50;99.90
22769;DHT22;13001;51.968;5.918;2022-11-20T15:23:21;3.50;99.90
22769;DHT22;13001;51.968;5.918;2022-11-20T15:25:50;3.50;99.90
22769;DHT22;13001;51.968;5.918;2022-11-20T15:28:21;3.50;99.90
22769;DHT22;13001;51.968;5.918;2022-11-20T15:30:50;3.50;99.90
22769;DHT22;13001;51.968;5.918;2022-11-20T15:33:17;3.50;99.90
22769;DHT22;13001;51.968;5.918;2022-11-20T15:35:45;3.50;99.90
22769;DHT22;13001;51.968;5.918;2022-11-20T15:38:14;3.50;99.90
22769;DHT22;13001;51.968;5.918;2022-11-20T15:40:42;3.50;99.90
22769;DHT22;13001;51.968;5.918;2022-11-20T15:43:09;3.50;99.90
22769;DHT22;13001;51.968;5.918;2022-11-20T15:45:48;3.50;99.90
22769;DHT22;13001;51.968;5.918;2022-11-20T15:48:29;3.60;99.90
22769;DHT22;13001;51.968;5.918;2022-11-20T15:51:05;3.60;99.90
22769;DHT22;13001;51.968;5.918;2022-11-20T15:53:32;3.60;99.90
22769;DHT22;13001;51.968;5.918;2022-11-20T15:56:00;3.60;99.90
22769;DHT22;13001;51.968;5.918;2022-11-20T15:58:27;3.60;99.90
22769;DHT22;13001;51.968;5.918;2022-11-20T16:00:55;3.60;99.90
22769;DHT22;13001;51.968;5.918;2022-11-20T16:03:23;3.50;99.90
22769;DHT22;13001;51.968;5.918;2022-11-20T16:05:50;3.60;99.90
22769;DHT22;13001;51.968;5.918;2022-11-20T16:08:18;3.60;99.90
22769;DHT22;13001;51.968;5.918;2022-11-20T16:10:47;3.60;99.90
22769;DHT22;13001;51.968;5.918;2022-11-20T16:13:17;3.60;99.90
22769;DHT22;13001;51.968;5.918;2022-11-20T16:16:11;3.60;99.90
22769;DHT22;13001;51.968;5.918;2022-11-20T16:18:37;3.60;99.90
22769;DHT22;13001;51.968;5.918;2022-11-20T16:21:10;3.60;99.90
22769;DHT22;13001;51.968;5.918;2022-11-20T16:23:33;3.60;99.90
22769;DHT22;13001;51.968;5.918;2022-11-20T16:26:10;3.60;99.90
22769;DHT22;13001;51.968;5.918;2022-11-20T16:28:38;3.60;99.90
22769;DHT22;13001;51.968;5.918;2022-11-20T16:31:13;3.50;99.90
22769;DHT22;13001;51.968;5.918;2022-11-20T16:33:41;3.50;99.90
22769;DHT22;13001;51.968;5.918;2022-11-20T16:36:11;3.50;99.90
22769;DHT22;13001;51.968;5.918;2022-11-20T16:38:38;3.50;99.90
22769;DHT22;13001;51.968;5.918;2022-11-20T16:41:06;3.50;99.90
22769;DHT22;13001;51.968;5.918;2022-11-20T16:43:38;3.50;99.90
22769;DHT22;13001;51.968;5.918;2022-11-20T16:46:05;3.50;99.90
22769;DHT22;13001;51.968;5.918;2022-11-20T16:48:34;3.50;99.90
22769;DHT22;13001;51.968;5.918;2022-11-20T16:51:04;3.50;99.90
22769;DHT22;13001;51.968;5.918;2022-11-20T16:53:32;3.60;99.90
22769;DHT22;13001;51.968;5.918;2022-11-20T16:56:11;3.60;99.90
22769;DHT22;13001;51.968;5.918;2022-11-20T16:58:39;3.50;99.90
22769;DHT22;13001;51.968;5.918;2022-11-20T17:01:11;3.50;99.90
22769;DHT22;13001;51.968;5.918;2022-11-20T17:03:40;3.50;99.90
22769;DHT22;13001;51.968;5.918;2022-11-20T17:06:18;3.50;99.90
22769;DHT22;13001;51.968;5.918;2022-11-20T17:08:43;3.50;99.90
22769;DHT22;13001;51.968;5.918;2022-11-20T17:11:13;3.50;99.90
22769;DHT22;13001;51.968;5.918;2022-11-20T17:13:41;3.50;99.90
22769;DHT22;13001;51.968;5.918;2022-11-20T17:16:18;3.50;99.90
22769;DHT22;13001;51.968;5.918;2022-11-20T17:18:42;3.50;99.90
22769;DHT22;13001;51.968;5.918;2022-11-20T17:21:11;3.50;99.90
22769;DHT22;13001;51.968;5.918;2022-11-20T17:23:41;3.50;99.90
22769;DHT22;13001;51.968;5.918;2022-11-20T17:26:13;3.50;99.90
22769;DHT22;13001;51.968;5.918;2022-11-20T17:28:45;3.50;99.90
22769;DHT22;13001;51.968;5.918;2022-11-20T17:31:15;3.50;99.90
22769;DHT22;13001;51.968;5.918;2022-11-20T17:33:44;3.50;99.90
22769;DHT22;13001;51.968;5.918;2022-11-20T17:36:15;3.50;99.90
22769;DHT22;13001;51.968;5.918;2022-11-20T17:38:43;3.50;99.90
22769;DHT22;13001;51.968;5.918;2022-11-20T17:41:17;3.50;99.90
22769;DHT22;13001;51.968;5.918;2022-11-20T17:43:45;3.50;99.90
22769;DHT22;13001;51.968;5.918;2022-11-20T17:46:19;3.50;99.90
22769;DHT22;13001;51.968;5.918;2022-11-20T17:48:48;3.50;99.90
22769;DHT22;13001;51.968;5.918;2022-11-20T17:51:18;3.50;99.90
22769;DHT22;13001;51.968;5.918;2022-11-20T17:53:48;3.50;99.90
22769;DHT22;13001;51.968;5.918;2022-11-20T17:56:16;3.50;99.90
22769;DHT22;13001;51.968;5.918;2022-11-20T17:59:06;3.50;99.90
22769;DHT22;13001;51.968;5.918;2022-11-20T18:01:36;3.50;99.90
22769;DHT22;13001;51.968;5.918;2022-11-20T18:04:05;3.50;99.90
22769;DHT22;13001;51.968;5.918;2022-11-20T18:06:33;3.50;99.90
